Impacts METAR Board INFO
IDs:

KSAN - San Diego Intl Arpt, CA, US

Updated at: 1023 UTC 23 Jan 2018
Potential Impact None Slight Moderate High
Time22/22Z 22/23Z 23/00Z 23/01Z 23/02Z 23/03Z 23/04Z 23/05Z 23/06Z 23/07Z 23/08Z 23/09Z 23/10Z
VIS10 10 10 10 10 10 10 10 10 10 10 10 10
CIG-- -- -- -- -- -- -- -- -- -- -- -- --
CoverCLRCLRCLRCLRCLRCLRCLRCLRCLRCLRCLRCLRCLR
FltCatVFRVFRVFRVFRVFRVFRVFRVFRVFRVFRVFRVFRVFR
WX--------------------------
WDir300310310340350000303000360
WSpd9 9 10 7 4 0 0 0 3 3 0 0 3
WGst-- -- -- -- -- -- -- -- -- -- -- -- --
Raw hourly METARs
KSAN 222151Z 30009KT 10SM CLR 18/01 A3017 RMK AO2 SLP217 T01780011
KSAN 222251Z 31009KT 10SM CLR 18/03 A3016 RMK AO2 SLP212 T01830028
KSAN 222351Z 31010KT 10SM CLR 17/05 A3016 RMK AO2 SLP214 T01720050 10189 20161 55010
KSAN 230051Z 34007KT 10SM CLR 17/02 A3017 RMK AO2 SLP216 T01720022
KSAN 230151Z 35004KT 10SM CLR 16/06 A3018 RMK AO2 SLP218 T01560056
KSAN 230251Z 00000KT 10SM CLR 15/07 A3017 RMK AO2 SLP217 T01500067 50003
KSAN 230351Z 00000KT 10SM CLR 14/06 A3018 RMK AO2 SLP218 T01440056
KSAN 230451Z 00000KT 10SM CLR 13/05 A3018 RMK AO2 SLP220 T01280050
KSAN 230551Z 03003KT 10SM CLR 12/04 A3019 RMK AO2 SLP222 T01220044 10172 20122 53005
KSAN 230651Z 03003KT 10SM CLR 12/02 A3018 RMK AO2 SLP220 T01220022
KSAN 230751Z 00000KT 10SM CLR 11/02 A3016 RMK AO2 SLP213 T01110017 401890089
KSAN 230851Z 00000KT 10SM CLR 11/01 A3016 RMK AO2 SLP211 T01060011 58011
KSAN 230951Z 36003KT 10SM CLR 09/02 A3015 RMK AO2 SLP209 T00940017